Report METAR

 

LIVP - Paganella Mounta, Italy
Distance from station: O 13km
Dati ricevuti: 20/04/2024 01:55
Sereno
Sereno
 Vento da calmo
Vento: Calma
Temperatura: -3°C
P.to Rugiada: -8°C
Umidità: 69%
Pressione: 1006 hPa
Summary: Sereno
Visibility: superiore a 10 km
2024/04/19 23:55 LIVP 192355Z 00000KT CAVOK M03/M08 Q1006
LIPB - Bolzano(Civ/It-A, Italy
Distance from station: NNE 37km
Dati ricevuti: 19/04/2024 22:50
DATI Obsoleti
Sereno
Sereno
 Vento da NNO
Vento: NNO 17 km/h
Temperatura: 11°C
P.to Rugiada: 2°C
Umidità: 54%
Pressione: 1009 hPa
Summary: Sereno
Visibility: superiore a 10 km
2024/04/19 20:50 LIPB 192050Z 33009KT 300V360 CAVOK 11/02 Q1009
 
LIVR - Rolle Pass, Italy
Distance from station: ENE 46km
Dati ricevuti: 20/04/2024 01:55
Sereno
Sereno
 Vento da N
Vento: N 7 km/h
Temperatura: -2°C
Temperatura Vento: -6°C
P.to Rugiada: -5°C
Umidità: 80%
Pressione: 1004 hPa
Summary: Sereno
Visibility: superiore a 10 km
2024/04/19 23:55 LIVR 192355Z 35004KT CAVOK M02/M05 Q1004
LIPS - Istrana (it-Afb), Italy
Distance from station: SE 86km
Dati ricevuti: 20/04/2024 01:55
Sereno
Sereno
 Vento da NE
Vento: NE 13 km/h
Temperatura: 6°C
Temperatura Vento: 3°C
P.to Rugiada: 4°C
Umidità: 87%
Pressione: 1009 hPa
Summary: Sereno
Visibility: superiore a 10 km
2024/04/19 23:55 LIPS 192355Z 05007KT CAVOK 06/04 Q1009
 
LIPX - Villafranca(Cv/M, Italy
Distance from station: SSO 88km
Dati ricevuti: 20/04/2024 01:50
Sereno
Sereno
 Vento da E
Vento: E 7 km/h
Temperatura: 7°C
Temperatura Vento: 6°C
P.to Rugiada: 1°C
Umidità: 66%
Pressione: 1007 hPa
Summary: Sereno
Visibility: superiore a 10 km
2024/04/19 23:50 LIPX 192350Z 10004KT CAVOK 07/01 Q1007
LIPH - Treviso(Civ/It-A, Italy
Distance from station: SE 94km
Dati ricevuti: 20/04/2024 02:20
Sereno
Sereno
 Vento da NE
Vento: NE 6 km/h
Temperatura: 7°C
P.to Rugiada: 3°C
Umidità: 76%
Pressione: 1008 hPa
Nuvole: Sereno
Visibility: 10 km
2024/04/20 00:20 LIPH 200020Z AUTO 04003KT 010V080 9999 NCD 07/03 Q1008
 
LIVE - Resia Pass, Italy
Distance from station: NO 95km
Dati ricevuti: 19/04/2024 23:55
DATI Obsoleti
Light snow, Mist, Coperto
Light snow, Mist, Coperto
 Vento da calmo
Vento: Calma
Temperatura: 0°C
P.to Rugiada: 0°C
Umidità: 100%
Pressione: 1009 hPa
Summary: Light snow, Mist
Nuvole: Coperto
Visibility: 4 km
Cloud details: Coperto 457 m
2024/04/19 21:55 LIVE 192155Z 00000KT 4000 -SN BR OVC015 00/00 Q1009
LIPU - Padova (civ/It-A, Italy
Distance from station: SSE 98km
Dati ricevuti: 19/04/2024 15:50
DATI Obsoleti
Poche nubi
Poche nubi
 Vento da OSO
Vento: OSO 15 km/h
Temperatura: 16°C
P.to Rugiada: 1°C
Umidità: 36%
Pressione: 1013 hPa
Nuvole: Poche nubi
Visibility: 10 km
Cloud details: Poche nubi 1219 m
2024/04/19 13:50 LIPU 191350Z 24008KT 200V310 9999 FEW040 16/01 Q1013